sensor_id;sensor_type;location;lat;lon;timestamp;P1;durP1;ratioP1;P2;durP2;ratioP2
18822;SDS011;9540;51.550;7.980;2022-11-20T00:01:17;27.80;;;13.83;;
18822;SDS011;9540;51.550;7.980;2022-11-20T00:03:46;26.33;;;13.13;;
18822;SDS011;9540;51.550;7.980;2022-11-20T00:06:14;26.20;;;13.97;;
18822;SDS011;9540;51.550;7.980;2022-11-20T00:08:42;31.77;;;16.17;;
18822;SDS011;9540;51.550;7.980;2022-11-20T00:11:12;29.07;;;14.23;;
18822;SDS011;9540;51.550;7.980;2022-11-20T00:13:40;26.47;;;13.03;;
18822;SDS011;9540;51.550;7.980;2022-11-20T00:16:08;25.53;;;12.77;;
18822;SDS011;9540;51.550;7.980;2022-11-20T00:18:37;25.10;;;13.20;;
18822;SDS011;9540;51.550;7.980;2022-11-20T00:21:05;24.70;;;12.17;;
18822;SDS011;9540;51.550;7.980;2022-11-20T00:23:33;22.60;;;12.23;;
18822;SDS011;9540;51.550;7.980;2022-11-20T00:26:03;24.87;;;11.63;;
18822;SDS011;9540;51.550;7.980;2022-11-20T00:28:32;26.50;;;12.80;;
18822;SDS011;9540;51.550;7.980;2022-11-20T00:31:02;24.60;;;12.57;;
18822;SDS011;9540;51.550;7.980;2022-11-20T00:33:31;24.20;;;12.67;;
18822;SDS011;9540;51.550;7.980;2022-11-20T00:36:01;22.70;;;11.40;;
18822;SDS011;9540;51.550;7.980;2022-11-20T00:38:29;22.17;;;11.73;;
18822;SDS011;9540;51.550;7.980;2022-11-20T00:40:56;23.33;;;11.60;;
18822;SDS011;9540;51.550;7.980;2022-11-20T00:43:24;26.70;;;12.60;;
18822;SDS011;9540;51.550;7.980;2022-11-20T00:45:57;29.77;;;12.40;;
18822;SDS011;9540;51.550;7.980;2022-11-20T00:48:24;24.97;;;11.73;;
18822;SDS011;9540;51.550;7.980;2022-11-20T00:50:51;25.27;;;13.90;;
18822;SDS011;9540;51.550;7.980;2022-11-20T00:53:19;28.33;;;13.37;;
18822;SDS011;9540;51.550;7.980;2022-11-20T00:55:52;27.83;;;13.50;;
18822;SDS011;9540;51.550;7.980;2022-11-20T00:58:20;29.40;;;12.47;;
18822;SDS011;9540;51.550;7.980;2022-11-20T01:00:47;23.57;;;12.80;;
18822;SDS011;9540;51.550;7.980;2022-11-20T01:03:16;24.40;;;12.77;;
18822;SDS011;9540;51.550;7.980;2022-11-20T01:05:44;25.80;;;13.50;;
18822;SDS011;9540;51.550;7.980;2022-11-20T01:08:11;29.47;;;13.83;;
18822;SDS011;9540;51.550;7.980;2022-11-20T01:10:38;29.97;;;14.30;;
18822;SDS011;9540;51.550;7.980;2022-11-20T01:13:05;27.57;;;15.07;;
18822;SDS011;9540;51.550;7.980;2022-11-20T01:15:49;34.60;;;16.57;;
18822;SDS011;9540;51.550;7.980;2022-11-20T01:18:17;34.27;;;15.63;;
18822;SDS011;9540;51.550;7.980;2022-11-20T01:20:44;35.23;;;15.73;;
18822;SDS011;9540;51.550;7.980;2022-11-20T01:23:12;27.37;;;13.93;;
18822;SDS011;9540;51.550;7.980;2022-11-20T01:25:39;35.33;;;16.50;;
18822;SDS011;9540;51.550;7.980;2022-11-20T01:28:06;35.13;;;16.23;;
18822;SDS011;9540;51.550;7.980;2022-11-20T01:30:33;36.93;;;17.03;;
18822;SDS011;9540;51.550;7.980;2022-11-20T01:33:00;32.13;;;15.40;;
18822;SDS011;9540;51.550;7.980;2022-11-20T01:35:28;36.90;;;17.13;;
18822;SDS011;9540;51.550;7.980;2022-11-20T01:37:55;34.57;;;16.70;;
18822;SDS011;9540;51.550;7.980;2022-11-20T01:40:22;35.17;;;16.23;;
18822;SDS011;9540;51.550;7.980;2022-11-20T01:45:59;35.97;;;17.97;;
18822;SDS011;9540;51.550;7.980;2022-11-20T01:48:36;37.03;;;17.83;;
18822;SDS011;9540;51.550;7.980;2022-11-20T01:51:09;39.20;;;18.30;;
18822;SDS011;9540;51.550;7.980;2022-11-20T01:53:42;40.50;;;18.37;;
18822;SDS011;9540;51.550;7.980;2022-11-20T01:56:10;40.97;;;18.17;;
18822;SDS011;9540;51.550;7.980;2022-11-20T01:58:40;36.93;;;18.00;;
18822;SDS011;9540;51.550;7.980;2022-11-20T02:01:11;38.20;;;18.60;;
18822;SDS011;9540;51.550;7.980;2022-11-20T02:03:39;36.83;;;18.40;;
18822;SDS011;9540;51.550;7.980;2022-11-20T02:06:10;38.27;;;19.07;;
18822;SDS011;9540;51.550;7.980;2022-11-20T02:08:41;35.93;;;18.17;;
18822;SDS011;9540;51.550;7.980;2022-11-20T02:11:08;38.03;;;20.17;;
18822;SDS011;9540;51.550;7.980;2022-11-20T02:13:38;42.50;;;19.53;;
18822;SDS011;9540;51.550;7.980;2022-11-20T02:16:11;40.10;;;19.47;;
18822;SDS011;9540;51.550;7.980;2022-11-20T02:18:41;34.83;;;18.30;;
18822;SDS011;9540;51.550;7.980;2022-11-20T02:21:17;35.53;;;17.30;;
18822;SDS011;9540;51.550;7.980;2022-11-20T02:24:04;33.80;;;16.77;;
18822;SDS011;9540;51.550;7.980;2022-11-20T02:26:34;28.00;;;13.63;;
18822;SDS011;9540;51.550;7.980;2022-11-20T02:29:08;28.87;;;13.17;;
18822;SDS011;9540;51.550;7.980;2022-11-20T02:31:36;29.73;;;12.93;;
18822;SDS011;9540;51.550;7.980;2022-11-20T02:34:05;27.47;;;12.90;;
18822;SDS011;9540;51.550;7.980;2022-11-20T02:36:32;24.33;;;12.30;;
18822;SDS011;9540;51.550;7.980;2022-11-20T02:39:03;25.77;;;13.73;;
18822;SDS011;9540;51.550;7.980;2022-11-20T02:41:32;24.10;;;13.40;;
18822;SDS011;9540;51.550;7.980;2022-11-20T02:44:00;24.47;;;12.70;;
18822;SDS011;9540;51.550;7.980;2022-11-20T02:46:28;24.93;;;12.90;;
18822;SDS011;9540;51.550;7.980;2022-11-20T02:48:55;23.50;;;12.20;;
18822;SDS011;9540;51.550;7.980;2022-11-20T02:51:22;25.47;;;13.43;;
18822;SDS011;9540;51.550;7.980;2022-11-20T02:53:49;26.00;;;13.80;;
18822;SDS011;9540;51.550;7.980;2022-11-20T02:56:18;25.43;;;12.33;;
18822;SDS011;9540;51.550;7.980;2022-11-20T02:58:45;26.20;;;12.40;;
18822;SDS011;9540;51.550;7.980;2022-11-20T03:01:12;20.73;;;11.87;;
18822;SDS011;9540;51.550;7.980;2022-11-20T03:03:39;25.90;;;13.53;;
18822;SDS011;9540;51.550;7.980;2022-11-20T03:06:06;24.20;;;12.27;;
18822;SDS011;9540;51.550;7.980;2022-11-20T03:08:33;24.90;;;12.87;;
18822;SDS011;9540;51.550;7.980;2022-11-20T03:11:05;23.57;;;11.97;;
18822;SDS011;9540;51.550;7.980;2022-11-20T03:13:34;24.47;;;11.67;;
18822;SDS011;9540;51.550;7.980;2022-11-20T03:16:08;21.57;;;11.97;;
18822;SDS011;9540;51.550;7.980;2022-11-20T03:18:36;22.60;;;12.40;;
18822;SDS011;9540;51.550;7.980;2022-11-20T03:21:04;24.30;;;12.50;;
18822;SDS011;9540;51.550;7.980;2022-11-20T03:23:32;24.83;;;12.80;;
18822;SDS011;9540;51.550;7.980;2022-11-20T03:26:09;25.77;;;13.63;;
18822;SDS011;9540;51.550;7.980;2022-11-20T03:28:39;22.30;;;12.00;;
18822;SDS011;9540;51.550;7.980;2022-11-20T03:31:07;23.27;;;12.30;;
18822;SDS011;9540;51.550;7.980;2022-11-20T03:33:35;26.97;;;13.43;;
18822;SDS011;9540;51.550;7.980;2022-11-20T03:36:02;24.57;;;12.80;;
18822;SDS011;9540;51.550;7.980;2022-11-20T03:38:30;23.40;;;13.17;;
18822;SDS011;9540;51.550;7.980;2022-11-20T03:40:58;21.73;;;12.07;;
18822;SDS011;9540;51.550;7.980;2022-11-20T03:43:27;20.07;;;11.07;;
18822;SDS011;9540;51.550;7.980;2022-11-20T03:45:55;19.73;;;11.60;;
18822;SDS011;9540;51.550;7.980;2022-11-20T03:48:22;19.00;;;11.20;;
18822;SDS011;9540;51.550;7.980;2022-11-20T03:50:50;22.83;;;11.77;;
18822;SDS011;9540;51.550;7.980;2022-11-20T03:53:16;19.37;;;11.13;;
18822;SDS011;9540;51.550;7.980;2022-11-20T03:55:44;18.20;;;10.40;;
18822;SDS011;9540;51.550;7.980;2022-11-20T03:58:11;22.17;;;11.67;;
18822;SDS011;9540;51.550;7.980;2022-11-20T04:00:38;22.60;;;11.13;;
18822;SDS011;9540;51.550;7.980;2022-11-20T04:03:06;23.30;;;11.57;;
18822;SDS011;9540;51.550;7.980;2022-11-20T04:05:33;19.07;;;10.37;;
18822;SDS011;9540;51.550;7.980;2022-11-20T04:08:00;21.60;;;11.23;;
18822;SDS011;9540;51.550;7.980;2022-11-20T04:10:27;21.00;;;10.57;;
18822;SDS011;9540;51.550;7.980;2022-11-20T04:12:54;19.77;;;10.27;;
18822;SDS011;9540;51.550;7.980;2022-11-20T04:15:21;23.10;;;11.67;;
18822;SDS011;9540;51.550;7.980;2022-11-20T04:17:48;19.23;;;10.73;;
18822;SDS011;9540;51.550;7.980;2022-11-20T04:20:17;17.70;;;10.40;;
18822;SDS011;9540;51.550;7.980;2022-11-20T04:22:44;24.10;;;12.13;;
18822;SDS011;9540;51.550;7.980;2022-11-20T04:25:11;21.07;;;11.17;;
18822;SDS011;9540;51.550;7.980;2022-11-20T04:27:38;20.63;;;12.23;;
18822;SDS011;9540;51.550;7.980;2022-11-20T04:30:05;19.13;;;11.20;;
18822;SDS011;9540;51.550;7.980;2022-11-20T04:32:33;20.63;;;11.80;;
18822;SDS011;9540;51.550;7.980;2022-11-20T04:35:00;20.60;;;10.80;;
18822;SDS011;9540;51.550;7.980;2022-11-20T04:37:28;21.33;;;11.40;;
18822;SDS011;9540;51.550;7.980;2022-11-20T04:39:55;19.90;;;10.27;;
18822;SDS011;9540;51.550;7.980;2022-11-20T04:42:22;25.73;;;11.23;;
18822;SDS011;9540;51.550;7.980;2022-11-20T04:44:55;18.10;;;10.53;;
18822;SDS011;9540;51.550;7.980;2022-11-20T04:47:22;23.03;;;12.27;;
18822;SDS011;9540;51.550;7.980;2022-11-20T04:49:49;17.50;;;9.87;;
18822;SDS011;9540;51.550;7.980;2022-11-20T04:52:16;18.10;;;9.70;;
18822;SDS011;9540;51.550;7.980;2022-11-20T04:54:44;21.57;;;11.87;;
18822;SDS011;9540;51.550;7.980;2022-11-20T04:57:12;17.53;;;9.67;;
18822;SDS011;9540;51.550;7.980;2022-11-20T04:59:40;20.33;;;10.77;;
18822;SDS011;9540;51.550;7.980;2022-11-20T05:02:07;20.97;;;11.43;;
18822;SDS011;9540;51.550;7.980;2022-11-20T05:04:35;18.70;;;10.97;;
18822;SDS011;9540;51.550;7.980;2022-11-20T05:07:02;19.73;;;10.50;;
18822;SDS011;9540;51.550;7.980;2022-11-20T05:09:29;24.77;;;11.80;;
18822;SDS011;9540;51.550;7.980;2022-11-20T05:11:57;20.90;;;10.73;;
18822;SDS011;9540;51.550;7.980;2022-11-20T05:14:25;23.20;;;11.23;;
18822;SDS011;9540;51.550;7.980;2022-11-20T05:16:52;20.97;;;11.37;;
18822;SDS011;9540;51.550;7.980;2022-11-20T05:19:19;20.03;;;10.57;;
18822;SDS011;9540;51.550;7.980;2022-11-20T05:21:46;17.33;;;9.20;;
18822;SDS011;9540;51.550;7.980;2022-11-20T05:24:13;20.13;;;11.00;;
18822;SDS011;9540;51.550;7.980;2022-11-20T05:26:40;17.43;;;9.83;;
18822;SDS011;9540;51.550;7.980;2022-11-20T05:29:10;23.07;;;11.03;;
18822;SDS011;9540;51.550;7.980;2022-11-20T05:31:38;22.33;;;10.67;;
18822;SDS011;9540;51.550;7.980;2022-11-20T05:34:06;16.53;;;9.53;;
18822;SDS011;9540;51.550;7.980;2022-11-20T05:36:34;18.33;;;10.57;;
18822;SDS011;9540;51.550;7.980;2022-11-20T05:39:01;21.63;;;10.93;;
18822;SDS011;9540;51.550;7.980;2022-11-20T05:41:28;17.77;;;10.07;;
18822;SDS011;9540;51.550;7.980;2022-11-20T05:43:55;17.50;;;10.07;;
18822;SDS011;9540;51.550;7.980;2022-11-20T05:46:25;18.87;;;10.57;;
18822;SDS011;9540;51.550;7.980;2022-11-20T05:48:52;16.80;;;9.70;;
18822;SDS011;9540;51.550;7.980;2022-11-20T05:51:19;18.67;;;10.33;;
18822;SDS011;9540;51.550;7.980;2022-11-20T05:53:47;19.30;;;10.37;;
18822;SDS011;9540;51.550;7.980;2022-11-20T05:56:15;20.80;;;11.20;;
18822;SDS011;9540;51.550;7.980;2022-11-20T05:58:43;17.87;;;10.17;;
18822;SDS011;9540;51.550;7.980;2022-11-20T06:01:12;20.03;;;10.43;;
18822;SDS011;9540;51.550;7.980;2022-11-20T06:03:42;18.77;;;10.27;;
18822;SDS011;9540;51.550;7.980;2022-11-20T06:06:11;17.33;;;9.57;;
18822;SDS011;9540;51.550;7.980;2022-11-20T06:08:38;17.70;;;9.67;;
18822;SDS011;9540;51.550;7.980;2022-11-20T06:11:05;19.03;;;11.27;;
18822;SDS011;9540;51.550;7.980;2022-11-20T06:13:34;19.83;;;10.23;;
18822;SDS011;9540;51.550;7.980;2022-11-20T06:16:01;19.77;;;9.87;;
18822;SDS011;9540;51.550;7.980;2022-11-20T06:18:29;20.60;;;10.10;;
18822;SDS011;9540;51.550;7.980;2022-11-20T06:21:02;21.37;;;11.13;;
18822;SDS011;9540;51.550;7.980;2022-11-20T06:23:30;17.97;;;10.10;;
18822;SDS011;9540;51.550;7.980;2022-11-20T06:26:00;18.57;;;10.27;;
18822;SDS011;9540;51.550;7.980;2022-11-20T06:28:28;18.60;;;10.17;;
18822;SDS011;9540;51.550;7.980;2022-11-20T06:30:55;21.07;;;11.13;;
18822;SDS011;9540;51.550;7.980;2022-11-20T06:33:22;19.27;;;10.57;;
18822;SDS011;9540;51.550;7.980;2022-11-20T06:35:50;18.20;;;10.60;;
18822;SDS011;9540;51.550;7.980;2022-11-20T06:38:18;21.40;;;11.07;;
18822;SDS011;9540;51.550;7.980;2022-11-20T06:40:45;23.33;;;11.17;;
18822;SDS011;9540;51.550;7.980;2022-11-20T06:43:12;18.23;;;9.97;;
18822;SDS011;9540;51.550;7.980;2022-11-20T06:45:39;21.13;;;10.07;;
18822;SDS011;9540;51.550;7.980;2022-11-20T06:48:06;19.13;;;10.50;;
18822;SDS011;9540;51.550;7.980;2022-11-20T06:50:33;18.20;;;9.83;;
18822;SDS011;9540;51.550;7.980;2022-11-20T06:53:00;19.70;;;10.63;;
18822;SDS011;9540;51.550;7.980;2022-11-20T06:55:30;18.27;;;10.10;;
18822;SDS011;9540;51.550;7.980;2022-11-20T06:57:57;20.83;;;10.60;;
18822;SDS011;9540;51.550;7.980;2022-11-20T07:00:24;18.47;;;10.40;;
18822;SDS011;9540;51.550;7.980;2022-11-20T07:02:51;20.83;;;10.57;;
18822;SDS011;9540;51.550;7.980;2022-11-20T07:05:18;21.33;;;11.10;;
18822;SDS011;9540;51.550;7.980;2022-11-20T07:07:45;21.83;;;10.47;;
18822;SDS011;9540;51.550;7.980;2022-11-20T07:10:12;20.27;;;10.70;;
18822;SDS011;9540;51.550;7.980;2022-11-20T07:12:40;19.37;;;10.27;;
18822;SDS011;9540;51.550;7.980;2022-11-20T07:15:08;23.80;;;12.60;;
18822;SDS011;9540;51.550;7.980;2022-11-20T07:17:35;23.83;;;13.33;;
18822;SDS011;9540;51.550;7.980;2022-11-20T07:20:02;26.33;;;13.33;;
18822;SDS011;9540;51.550;7.980;2022-11-20T07:22:29;24.83;;;13.00;;
18822;SDS011;9540;51.550;7.980;2022-11-20T07:24:56;21.87;;;11.57;;
18822;SDS011;9540;51.550;7.980;2022-11-20T07:27:23;24.50;;;12.67;;
18822;SDS011;9540;51.550;7.980;2022-11-20T07:29:52;22.70;;;11.90;;
18822;SDS011;9540;51.550;7.980;2022-11-20T07:32:19;24.33;;;11.63;;
18822;SDS011;9540;51.550;7.980;2022-11-20T07:34:46;21.50;;;11.67;;
18822;SDS011;9540;51.550;7.980;2022-11-20T07:37:13;27.27;;;12.00;;
18822;SDS011;9540;51.550;7.980;2022-11-20T07:39:40;20.93;;;11.77;;
18822;SDS011;9540;51.550;7.980;2022-11-20T07:42:07;30.90;;;14.17;;
18822;SDS011;9540;51.550;7.980;2022-11-20T07:44:35;77.90;;;32.70;;
18822;SDS011;9540;51.550;7.980;2022-11-20T07:47:03;52.83;;;23.70;;
18822;SDS011;9540;51.550;7.980;2022-11-20T07:49:30;35.67;;;19.13;;
18822;SDS011;9540;51.550;7.980;2022-11-20T07:51:58;29.43;;;16.17;;
18822;SDS011;9540;51.550;7.980;2022-11-20T07:54:25;25.87;;;14.93;;
18822;SDS011;9540;51.550;7.980;2022-11-20T07:56:52;28.07;;;14.97;;
18822;SDS011;9540;51.550;7.980;2022-11-20T07:59:20;30.67;;;14.53;;
18822;SDS011;9540;51.550;7.980;2022-11-20T08:01:47;28.43;;;15.23;;
18822;SDS011;9540;51.550;7.980;2022-11-20T08:04:16;25.33;;;14.40;;
18822;SDS011;9540;51.550;7.980;2022-11-20T08:06:43;22.27;;;13.20;;
18822;SDS011;9540;51.550;7.980;2022-11-20T08:09:10;24.53;;;13.23;;
18822;SDS011;9540;51.550;7.980;2022-11-20T08:11:37;22.00;;;12.10;;
18822;SDS011;9540;51.550;7.980;2022-11-20T08:14:22;25.27;;;12.97;;
18822;SDS011;9540;51.550;7.980;2022-11-20T08:16:49;20.97;;;12.43;;
18822;SDS011;9540;51.550;7.980;2022-11-20T08:19:17;22.03;;;11.43;;
18822;SDS011;9540;51.550;7.980;2022-11-20T08:21:45;18.73;;;11.67;;
18822;SDS011;9540;51.550;7.980;2022-11-20T08:24:12;18.43;;;10.47;;
18822;SDS011;9540;51.550;7.980;2022-11-20T08:26:39;18.43;;;10.63;;
18822;SDS011;9540;51.550;7.980;2022-11-20T08:29:07;17.03;;;10.30;;
18822;SDS011;9540;51.550;7.980;2022-11-20T08:31:34;15.67;;;9.90;;
18822;SDS011;9540;51.550;7.980;2022-11-20T08:34:01;16.80;;;9.63;;
18822;SDS011;9540;51.550;7.980;2022-11-20T08:36:32;14.27;;;9.70;;
18822;SDS011;9540;51.550;7.980;2022-11-20T08:38:59;15.53;;;9.60;;
18822;SDS011;9540;51.550;7.980;2022-11-20T08:41:26;14.33;;;9.73;;
18822;SDS011;9540;51.550;7.980;2022-11-20T08:43:54;15.38;;;10.15;;
18822;SDS011;9540;51.550;7.980;2022-11-20T08:46:22;17.02;;;10.82;;
18822;SDS011;9540;51.550;7.980;2022-11-20T08:48:50;18.40;;;11.15;;
18822;SDS011;9540;51.550;7.980;2022-11-20T08:51:18;15.02;;;11.80;;
18822;SDS011;9540;51.550;7.980;2022-11-20T08:53:47;16.52;;;12.13;;
18822;SDS011;9540;51.550;7.980;2022-11-20T08:56:14;14.20;;;10.40;;
18822;SDS011;9540;51.550;7.980;2022-11-20T08:58:42;15.30;;;11.23;;
18822;SDS011;9540;51.550;7.980;2022-11-20T09:01:09;15.32;;;11.55;;
18822;SDS011;9540;51.550;7.980;2022-11-20T09:03:37;13.88;;;10.10;;
18822;SDS011;9540;51.550;7.980;2022-11-20T09:06:04;11.43;;;9.10;;
18822;SDS011;9540;51.550;7.980;2022-11-20T09:08:33;12.77;;;9.50;;
18822;SDS011;9540;51.550;7.980;2022-11-20T09:11:03;14.32;;;10.00;;
18822;SDS011;9540;51.550;7.980;2022-11-20T09:13:31;12.60;;;10.10;;
18822;SDS011;9540;51.550;7.980;2022-11-20T09:16:00;15.55;;;10.68;;
18822;SDS011;9540;51.550;7.980;2022-11-20T09:18:29;12.13;;;9.60;;
18822;SDS011;9540;51.550;7.980;2022-11-20T09:20:58;13.32;;;9.90;;
18822;SDS011;9540;51.550;7.980;2022-11-20T09:23:26;14.18;;;10.85;;
18822;SDS011;9540;51.550;7.980;2022-11-20T09:25:53;17.20;;;11.30;;
18822;SDS011;9540;51.550;7.980;2022-11-20T09:28:25;14.85;;;11.13;;
18822;SDS011;9540;51.550;7.980;2022-11-20T09:30:53;16.95;;;11.30;;
18822;SDS011;9540;51.550;7.980;2022-11-20T09:33:19;14.05;;;10.10;;
18822;SDS011;9540;51.550;7.980;2022-11-20T09:35:46;15.63;;;10.40;;
18822;SDS011;9540;51.550;7.980;2022-11-20T09:38:13;14.80;;;9.88;;
18822;SDS011;9540;51.550;7.980;2022-11-20T09:40:43;13.35;;;10.52;;
18822;SDS011;9540;51.550;7.980;2022-11-20T09:43:15;14.48;;;10.75;;
18822;SDS011;9540;51.550;7.980;2022-11-20T09:45:53;14.80;;;10.52;;
18822;SDS011;9540;51.550;7.980;2022-11-20T09:51:25;13.48;;;10.05;;
18822;SDS011;9540;51.550;7.980;2022-11-20T09:54:02;13.88;;;9.75;;
18822;SDS011;9540;51.550;7.980;2022-11-20T09:56:37;16.30;;;10.43;;
18822;SDS011;9540;51.550;7.980;2022-11-20T09:59:10;15.77;;;10.52;;
18822;SDS011;9540;51.550;7.980;2022-11-20T10:01:48;14.93;;;10.90;;
18822;SDS011;9540;51.550;7.980;2022-11-20T10:04:17;15.18;;;10.88;;
18822;SDS011;9540;51.550;7.980;2022-11-20T10:06:47;15.70;;;10.77;;
18822;SDS011;9540;51.550;7.980;2022-11-20T10:09:21;20.27;;;12.57;;
18822;SDS011;9540;51.550;7.980;2022-11-20T10:11:57;20.80;;;12.05;;
18822;SDS011;9540;51.550;7.980;2022-11-20T10:14:38;16.08;;;11.65;;
18822;SDS011;9540;51.550;7.980;2022-11-20T10:17:19;18.45;;;11.80;;
18822;SDS011;9540;51.550;7.980;2022-11-20T10:20:02;21.90;;;12.20;;
18822;SDS011;9540;51.550;7.980;2022-11-20T10:22:47;18.10;;;12.05;;
18822;SDS011;9540;51.550;7.980;2022-11-20T10:25:24;20.17;;;12.18;;
18822;SDS011;9540;51.550;7.980;2022-11-20T10:28:05;18.98;;;11.93;;
18822;SDS011;9540;51.550;7.980;2022-11-20T10:30:41;19.08;;;12.30;;
18822;SDS011;9540;51.550;7.980;2022-11-20T10:33:13;16.50;;;11.00;;
18822;SDS011;9540;51.550;7.980;2022-11-20T10:35:44;20.63;;;11.97;;
18822;SDS011;9540;51.550;7.980;2022-11-20T10:38:18;19.05;;;11.05;;
18822;SDS011;9540;51.550;7.980;2022-11-20T10:40:51;17.80;;;10.97;;
18822;SDS011;9540;51.550;7.980;2022-11-20T10:43:41;18.20;;;11.03;;
18822;SDS011;9540;51.550;7.980;2022-11-20T10:46:10;17.83;;;10.83;;
18822;SDS011;9540;51.550;7.980;2022-11-20T10:48:43;15.03;;;10.33;;
18822;SDS011;9540;51.550;7.980;2022-11-20T10:51:13;17.47;;;11.07;;
18822;SDS011;9540;51.550;7.980;2022-11-20T10:53:53;18.27;;;11.60;;
18822;SDS011;9540;51.550;7.980;2022-11-20T10:56:32;17.83;;;10.87;;
18822;SDS011;9540;51.550;7.980;2022-11-20T10:59:11;16.20;;;10.73;;
18822;SDS011;9540;51.550;7.980;2022-11-20T11:02:01;17.70;;;9.93;;
18822;SDS011;9540;51.550;7.980;2022-11-20T11:04:44;19.17;;;10.70;;
18822;SDS011;9540;51.550;7.980;2022-11-20T11:07:13;20.27;;;11.17;;
18822;SDS011;9540;51.550;7.980;2022-11-20T11:09:44;16.97;;;10.67;;
18822;SDS011;9540;51.550;7.980;2022-11-20T11:12:14;15.60;;;9.97;;
18822;SDS011;9540;51.550;7.980;2022-11-20T11:14:41;15.13;;;9.80;;
18822;SDS011;9540;51.550;7.980;2022-11-20T11:17:18;17.53;;;10.90;;
18822;SDS011;9540;51.550;7.980;2022-11-20T11:20:03;16.87;;;10.33;;
18822;SDS011;9540;51.550;7.980;2022-11-20T11:22:33;17.87;;;9.93;;
18822;SDS011;9540;51.550;7.980;2022-11-20T11:25:11;17.50;;;10.73;;
18822;SDS011;9540;51.550;7.980;2022-11-20T11:27:46;17.50;;;10.03;;
18822;SDS011;9540;51.550;7.980;2022-11-20T11:30:14;16.23;;;10.23;;
18822;SDS011;9540;51.550;7.980;2022-11-20T11:32:43;14.40;;;10.70;;
18822;SDS011;9540;51.550;7.980;2022-11-20T11:35:22;16.80;;;12.07;;
18822;SDS011;9540;51.550;7.980;2022-11-20T11:37:51;23.02;;;13.10;;
18822;SDS011;9540;51.550;7.980;2022-11-20T11:40:21;17.23;;;11.00;;
18822;SDS011;9540;51.550;7.980;2022-11-20T11:42:53;18.17;;;11.82;;
18822;SDS011;9540;51.550;7.980;2022-11-20T11:45:22;15.38;;;11.43;;
18822;SDS011;9540;51.550;7.980;2022-11-20T11:47:49;17.15;;;10.63;;
18822;SDS011;9540;51.550;7.980;2022-11-20T11:50:20;20.42;;;12.57;;
18822;SDS011;9540;51.550;7.980;2022-11-20T11:52:53;15.93;;;10.68;;
18822;SDS011;9540;51.550;7.980;2022-11-20T11:55:31;14.82;;;10.25;;
18822;SDS011;9540;51.550;7.980;2022-11-20T11:58:14;14.75;;;10.35;;
18822;SDS011;9540;51.550;7.980;2022-11-20T12:00:49;13.45;;;10.63;;
18822;SDS011;9540;51.550;7.980;2022-11-20T12:03:24;13.18;;;9.52;;
18822;SDS011;9540;51.550;7.980;2022-11-20T12:05:58;14.52;;;10.57;;
18822;SDS011;9540;51.550;7.980;2022-11-20T12:08:30;17.35;;;11.65;;
18822;SDS011;9540;51.550;7.980;2022-11-20T12:11:04;16.17;;;10.95;;
18822;SDS011;9540;51.550;7.980;2022-11-20T12:13:39;15.68;;;11.73;;
18822;SDS011;9540;51.550;7.980;2022-11-20T12:16:11;19.85;;;12.65;;
18822;SDS011;9540;51.550;7.980;2022-11-20T12:18:40;19.95;;;12.02;;
18822;SDS011;9540;51.550;7.980;2022-11-20T12:21:13;17.45;;;11.18;;
18822;SDS011;9540;51.550;7.980;2022-11-20T12:23:49;20.35;;;14.00;;
18822;SDS011;9540;51.550;7.980;2022-11-20T12:26:29;21.60;;;12.88;;
18822;SDS011;9540;51.550;7.980;2022-11-20T12:29:19;19.25;;;12.65;;
18822;SDS011;9540;51.550;7.980;2022-11-20T12:32:02;19.48;;;10.77;;
18822;SDS011;9540;51.550;7.980;2022-11-20T12:34:44;18.57;;;12.13;;
18822;SDS011;9540;51.550;7.980;2022-11-20T12:37:24;18.03;;;11.10;;
18822;SDS011;9540;51.550;7.980;2022-11-20T12:40:08;17.13;;;10.97;;
18822;SDS011;9540;51.550;7.980;2022-11-20T12:42:49;19.03;;;11.90;;
18822;SDS011;9540;51.550;7.980;2022-11-20T12:48:42;21.17;;;12.67;;
18822;SDS011;9540;51.550;7.980;2022-11-20T12:51:43;18.27;;;11.53;;
18822;SDS011;9540;51.550;7.980;2022-11-20T12:54:28;21.60;;;12.93;;
18822;SDS011;9540;51.550;7.980;2022-11-20T12:57:05;19.37;;;11.93;;
18822;SDS011;9540;51.550;7.980;2022-11-20T13:02:38;24.40;;;12.83;;
18822;SDS011;9540;51.550;7.980;2022-11-20T13:05:21;22.10;;;13.60;;
18822;SDS011;9540;51.550;7.980;2022-11-20T13:07:54;21.30;;;12.63;;
18822;SDS011;9540;51.550;7.980;2022-11-20T13:10:26;20.50;;;12.90;;
18822;SDS011;9540;51.550;7.980;2022-11-20T13:13:01;24.03;;;13.63;;
18822;SDS011;9540;51.550;7.980;2022-11-20T13:15:40;25.97;;;14.37;;
18822;SDS011;9540;51.550;7.980;2022-11-20T13:18:14;23.17;;;13.77;;
18822;SDS011;9540;51.550;7.980;2022-11-20T13:20:41;22.23;;;14.30;;
18822;SDS011;9540;51.550;7.980;2022-11-20T13:23:10;21.73;;;13.30;;
18822;SDS011;9540;51.550;7.980;2022-11-20T13:25:39;25.73;;;14.73;;
18822;SDS011;9540;51.550;7.980;2022-11-20T13:30:55;24.60;;;13.57;;
18822;SDS011;9540;51.550;7.980;2022-11-20T13:33:25;23.80;;;13.23;;
18822;SDS011;9540;51.550;7.980;2022-11-20T13:35:56;22.63;;;13.87;;
18822;SDS011;9540;51.550;7.980;2022-11-20T13:38:24;23.80;;;13.57;;
18822;SDS011;9540;51.550;7.980;2022-11-20T13:40:53;22.47;;;13.43;;
18822;SDS011;9540;51.550;7.980;2022-11-20T13:43:22;19.47;;;12.93;;
18822;SDS011;9540;51.550;7.980;2022-11-20T13:45:54;18.97;;;11.97;;
18822;SDS011;9540;51.550;7.980;2022-11-20T13:48:26;21.73;;;13.33;;
18822;SDS011;9540;51.550;7.980;2022-11-20T13:51:00;26.97;;;13.77;;
18822;SDS011;9540;51.550;7.980;2022-11-20T13:53:53;19.60;;;12.67;;
18822;SDS011;9540;51.550;7.980;2022-11-20T13:56:34;21.60;;;13.67;;
18822;SDS011;9540;51.550;7.980;2022-11-20T13:59:10;22.27;;;12.87;;
18822;SDS011;9540;51.550;7.980;2022-11-20T14:01:45;24.17;;;13.87;;
18822;SDS011;9540;51.550;7.980;2022-11-20T14:04:14;25.23;;;13.87;;
18822;SDS011;9540;51.550;7.980;2022-11-20T14:06:45;24.77;;;14.43;;
18822;SDS011;9540;51.550;7.980;2022-11-20T14:09:24;23.70;;;14.47;;
18822;SDS011;9540;51.550;7.980;2022-11-20T14:11:54;28.10;;;15.10;;
18822;SDS011;9540;51.550;7.980;2022-11-20T14:14:22;24.83;;;15.03;;
18822;SDS011;9540;51.550;7.980;2022-11-20T14:16:50;24.97;;;15.50;;
18822;SDS011;9540;51.550;7.980;2022-11-20T14:22:09;21.80;;;11.80;;
18822;SDS011;9540;51.550;7.980;2022-11-20T14:24:43;23.50;;;11.37;;
18822;SDS011;9540;51.550;7.980;2022-11-20T14:27:13;19.90;;;11.47;;
18822;SDS011;9540;51.550;7.980;2022-11-20T14:29:42;18.40;;;10.93;;
18822;SDS011;9540;51.550;7.980;2022-11-20T14:32:10;19.90;;;10.63;;
18822;SDS011;9540;51.550;7.980;2022-11-20T14:34:41;18.27;;;10.57;;
18822;SDS011;9540;51.550;7.980;2022-11-20T14:37:10;24.03;;;12.13;;
18822;SDS011;9540;51.550;7.980;2022-11-20T14:39:41;18.63;;;11.13;;
18822;SDS011;9540;51.550;7.980;2022-11-20T14:42:16;17.87;;;10.47;;
18822;SDS011;9540;51.550;7.980;2022-11-20T14:44:44;22.20;;;12.20;;
18822;SDS011;9540;51.550;7.980;2022-11-20T14:47:12;22.77;;;12.27;;
18822;SDS011;9540;51.550;7.980;2022-11-20T14:49:44;20.90;;;12.33;;
18822;SDS011;9540;51.550;7.980;2022-11-20T14:52:14;18.60;;;10.87;;
18822;SDS011;9540;51.550;7.980;2022-11-20T14:54:45;20.67;;;12.17;;
18822;SDS011;9540;51.550;7.980;2022-11-20T14:57:22;20.57;;;11.70;;
18822;SDS011;9540;51.550;7.980;2022-11-20T14:59:51;20.07;;;10.97;;
18822;SDS011;9540;51.550;7.980;2022-11-20T15:02:29;19.67;;;11.77;;
18822;SDS011;9540;51.550;7.980;2022-11-20T15:04:57;20.23;;;11.80;;
18822;SDS011;9540;51.550;7.980;2022-11-20T15:07:29;21.40;;;11.77;;
18822;SDS011;9540;51.550;7.980;2022-11-20T15:10:04;22.80;;;12.77;;
18822;SDS011;9540;51.550;7.980;2022-11-20T15:12:36;20.83;;;12.50;;